Time;durP1;ratioP1;P1;durP2;ratioP2;P2;SDS_P1;SDS_P2;PMS_P1;PMS_P2;Temp;Humidity;BMP_temperature;BMP_pressure;BME280_temperature;BME280_humidity;BME280_pressure;Samples;Min_cycle;Max_cycle;Signal;HPM_P1;HPM_P2
2021/03/24 00:00:42;;;;;;;65.47;33.10;;;3.80;99.90;;;;;;5125579;27;20031;-52
2021/03/24 00:03:08;;;;;;;66.40;33.53;;;3.90;99.90;;;;;;5132242;27;20518;-55
2021/03/24 00:05:36;;;;;;;69.18;30.73;;;3.90;99.90;;;;;;5132523;27;20027;-54
2021/03/24 00:08:04;;;;;;;65.43;31.60;;;4.00;99.90;;;;;;5131340;27;20023;-56
2021/03/24 00:10:30;;;;;;;63.65;29.85;;;3.90;99.90;;;;;;5129046;27;20162;-53
2021/03/24 00:12:58;;;;;;;66.28;29.52;;;3.70;99.90;;;;;;5131407;27;20019;-53
2021/03/24 00:15:24;;;;;;;67.20;31.45;;;3.60;99.90;;;;;;5131984;27;20096;-55
2021/03/24 00:17:50;;;;;;;63.88;29.90;;;3.50;99.90;;;;;;5132144;27;20034;-55
2021/03/24 00:20:20;;;;;;;70.05;30.60;;;3.30;99.90;;;;;;5124582;27;20043;-52
2021/03/24 00:22:45;;;;;;;63.08;32.45;;;3.20;99.90;;;;;;5131684;27;20023;-52
2021/03/24 00:25:14;;;;;;;68.90;33.58;;;3.10;99.90;;;;;;5121217;27;20031;-55
2021/03/24 00:27:42;;;;;;;82.38;35.35;;;3.10;99.90;;;;;;5126671;27;20057;-54
2021/03/24 00:30:09;;;;;;;82.70;35.30;;;3.00;99.90;;;;;;5118848;27;20096;-52
2021/03/24 00:32:34;;;;;;;76.97;34.78;;;3.10;99.90;;;;;;5125568;27;20034;-52
2021/03/24 00:35:00;;;;;;;72.18;33.90;;;3.10;99.90;;;;;;5126009;27;20019;-52
2021/03/24 00:37:26;;;;;;;73.60;33.85;;;3.10;99.90;;;;;;5126718;27;20029;-55
2021/03/24 00:39:51;;;;;;;77.82;36.03;;;3.20;99.90;;;;;;5126689;27;20481;-52
2021/03/24 00:42:17;;;;;;;78.00;35.47;;;3.30;99.90;;;;;;5122754;27;20019;-55
2021/03/24 00:44:42;;;;;;;74.82;33.97;;;3.30;99.90;;;;;;5131518;27;20031;-54
2021/03/24 00:47:08;;;;;;;71.70;32.97;;;3.30;99.90;;;;;;5131206;27;20451;-52
2021/03/24 00:49:33;;;;;;;71.05;31.65;;;3.30;99.90;;;;;;5128929;27;20493;-57
2021/03/24 00:51:59;;;;;;;71.07;33.20;;;3.30;99.90;;;;;;5128819;27;20442;-56
2021/03/24 00:54:25;;;;;;;73.88;31.58;;;3.30;99.90;;;;;;5122498;27;20023;-55
2021/03/24 00:56:50;;;;;;;72.15;31.17;;;3.30;99.90;;;;;;5130937;27;20038;-55
2021/03/24 00:59:16;;;;;;;77.22;33.92;;;3.40;99.90;;;;;;5129018;27;20077;-56
2021/03/24 01:01:42;;;;;;;69.97;31.08;;;3.40;99.90;;;;;;5131261;27;20392;-53
2021/03/24 01:04:09;;;;;;;68.10;31.75;;;3.30;99.90;;;;;;5127266;27;20047;-53
2021/03/24 01:06:41;;;;;;;64.00;32.10;;;3.20;99.90;;;;;;5131249;27;20051;-56
2021/03/24 01:09:09;;;;;;;73.18;31.20;;;3.20;99.90;;;;;;5127794;27;20427;-54
2021/03/24 01:11:40;;;;;;;73.13;32.38;;;3.10;99.90;;;;;;5129670;27;20046;-52
2021/03/24 01:14:07;;;;;;;63.45;31.73;;;3.10;99.90;;;;;;5127283;27;20105;-56
2021/03/24 01:16:33;;;;;;;73.97;32.38;;;3.00;99.90;;;;;;5130916;27;20514;-52
2021/03/24 01:18:59;;;;;;;72.30;32.25;;;3.00;99.90;;;;;;5124380;27;20503;-55
2021/03/24 01:21:25;;;;;;;80.20;32.85;;;3.00;99.90;;;;;;5124502;27;20027;-56
2021/03/24 01:23:51;;;;;;;73.75;34.38;;;2.90;99.90;;;;;;5129448;27;20023;-52
2021/03/24 01:26:18;;;;;;;73.38;33.60;;;2.90;99.90;;;;;;5129799;27;20054;-52
2021/03/24 01:28:43;;;;;;;68.18;31.67;;;2.90;99.90;;;;;;5128497;27;20019;-54
2021/03/24 01:31:09;;;;;;;75.68;32.92;;;2.90;99.90;;;;;;5118565;27;20038;-53
2021/03/24 01:33:35;;;;;;;73.38;34.53;;;2.80;99.90;;;;;;5130008;27;20063;-56
2021/03/24 01:36:00;;;;;;;68.95;31.20;;;2.80;99.90;;;;;;5129911;27;20023;-55
2021/03/24 01:38:26;;;;;;;73.97;35.67;;;2.90;99.90;;;;;;5125892;27;20377;-54
2021/03/24 01:40:56;;;;;;;79.50;36.10;;;2.90;99.90;;;;;;5125461;27;20039;-55
2021/03/24 01:43:23;;;;;;;68.63;31.80;;;3.00;99.90;;;;;;5128208;27;20172;-52
2021/03/24 01:46:17;;;;;;;74.40;35.28;;;3.00;99.90;;;;;;5130873;28;20015;-56
2021/03/24 01:48:52;;;;;;;83.85;34.47;;;3.00;99.90;;;;;;5118142;28;20023;-54
2021/03/24 01:51:20;;;;;;;68.22;33.50;;;2.90;99.90;;;;;;5126401;28;20095;-54
2021/03/24 01:53:46;;;;;;;72.50;34.10;;;2.80;99.90;;;;;;5125164;28;20026;-53
2021/03/24 01:56:13;;;;;;;66.03;32.70;;;2.80;99.90;;;;;;5127200;28;20496;-54
2021/03/24 01:58:40;;;;;;;73.45;30.58;;;2.70;99.90;;;;;;5124965;28;20042;-55
2021/03/24 02:01:10;;;;;;;70.78;31.63;;;2.60;99.90;;;;;;5125700;28;20038;-57
2021/03/24 02:03:36;;;;;;;72.13;31.45;;;2.50;99.90;;;;;;5125000;28;20433;-52
2021/03/24 02:06:19;;;;;;;84.53;36.33;;;2.50;99.90;;;;;;5121963;28;20481;-52
2021/03/24 02:08:52;;;;;;;77.13;35.83;;;2.60;99.90;;;;;;5122270;28;20031;-54
2021/03/24 02:11:30;;;;;;;85.20;33.95;;;2.60;99.90;;;;;;5128099;28;20272;-55
2021/03/24 02:14:01;;;;;;;75.13;34.72;;;2.60;99.90;;;;;;5130123;28;20027;-52
2021/03/24 02:16:39;;;;;;;70.32;33.40;;;2.60;99.90;;;;;;5130112;28;20028;-52
2021/03/24 02:19:29;;;;;;;74.32;31.60;;;2.50;99.90;;;;;;5124152;28;20034;-54
2021/03/24 02:21:56;;;;;;;74.88;34.15;;;2.40;99.90;;;;;;5126415;28;20050;-53
2021/03/24 02:24:39;;;;;;;74.75;33.33;;;2.40;99.90;;;;;;5119833;28;20085;-52
2021/03/24 02:27:06;;;;;;;73.93;33.85;;;2.30;99.90;;;;;;5121088;28;20049;-51
2021/03/24 02:29:34;;;;;;;77.35;35.22;;;2.30;99.90;;;;;;5128157;28;20488;-53
2021/03/24 02:32:03;;;;;;;79.03;34.30;;;2.30;99.90;;;;;;5129119;28;20027;-52
2021/03/24 02:34:31;;;;;;;72.15;34.28;;;2.30;99.90;;;;;;5129856;28;20024;-50
2021/03/24 02:36:58;;;;;;;69.60;32.63;;;2.20;99.90;;;;;;5129272;28;20034;-52
2021/03/24 02:39:26;;;;;;;78.57;34.35;;;2.30;99.90;;;;;;5127360;28;20344;-53
2021/03/24 02:41:54;;;;;;;74.72;36.10;;;2.20;99.90;;;;;;5121971;27;20023;-52
2021/03/24 02:44:20;;;;;;;77.93;33.95;;;2.30;99.90;;;;;;5130350;27;20038;-52
2021/03/24 02:46:46;;;;;;;78.80;33.08;;;2.30;99.90;;;;;;5133670;27;20023;-52
2021/03/24 02:49:13;;;;;;;82.10;34.75;;;2.30;99.90;;;;;;5133898;27;20122;-51
2021/03/24 02:51:40;;;;;;;80.15;35.03;;;2.40;99.90;;;;;;5128262;27;20020;-54
2021/03/24 02:54:13;;;;;;;72.35;31.73;;;2.40;99.90;;;;;;5128456;27;20061;-52
2021/03/24 02:56:38;;;;;;;71.85;32.22;;;2.40;99.90;;;;;;5107241;27;20393;-52
2021/03/24 02:59:06;;;;;;;70.85;32.60;;;2.40;99.90;;;;;;5133331;27;20027;-52
2021/03/24 03:02:04;;;;;;;73.35;34.15;;;2.40;99.90;;;;;;5128947;27;20042;-54
2021/03/24 03:04:37;;;;;;;66.90;31.50;;;2.40;99.90;;;;;;5131280;27;20019;-52
2021/03/24 03:07:18;;;;;;;72.35;32.28;;;2.30;99.90;;;;;;5128306;27;20503;-52
2021/03/24 03:09:50;;;;;;;68.28;31.38;;;2.30;99.90;;;;;;5130662;27;20031;-53
2021/03/24 03:12:23;;;;;;;66.85;30.88;;;2.30;99.90;;;;;;5132811;27;20169;-53
2021/03/24 03:15:00;;;;;;;69.25;32.80;;;2.30;99.90;;;;;;5131375;27;20511;-56
2021/03/24 03:17:40;;;;;;;71.78;31.50;;;2.30;99.90;;;;;;5133084;27;20038;-53
2021/03/24 03:20:21;;;;;;;66.07;31.75;;;2.30;99.90;;;;;;5106999;28;20072;-54
2021/03/24 03:22:57;;;;;;;63.78;29.30;;;2.30;99.90;;;;;;5127317;27;20043;-55
2021/03/24 03:25:28;;;;;;;70.35;30.42;;;2.20;99.90;;;;;;5127287;27;20065;-54
2021/03/24 03:27:56;;;;;;;62.78;29.00;;;2.30;99.90;;;;;;5131930;27;20019;-56
2021/03/24 03:30:28;;;;;;;62.00;28.48;;;2.30;99.90;;;;;;5129026;27;20027;-54
2021/03/24 03:32:57;;;;;;;72.65;33.08;;;2.30;99.90;;;;;;5126419;27;20439;-55
2021/03/24 03:35:24;;;;;;;67.93;30.92;;;2.30;99.90;;;;;;5125243;27;20566;-53
2021/03/24 03:37:55;;;;;;;69.72;29.52;;;2.30;99.90;;;;;;5129494;27;20039;-52
2021/03/24 03:40:23;;;;;;;64.78;30.17;;;2.30;99.90;;;;;;5124194;27;20109;-52
2021/03/24 03:42:50;;;;;;;67.90;32.05;;;2.20;99.90;;;;;;5132380;27;20084;-56
2021/03/24 03:45:17;;;;;;;69.30;31.15;;;2.30;99.90;;;;;;5126271;27;20027;-55
2021/03/24 03:47:44;;;;;;;71.30;30.42;;;2.30;99.90;;;;;;5132860;27;20023;-56
2021/03/24 03:50:15;;;;;;;80.93;33.53;;;2.30;99.90;;;;;;5126678;27;20050;-55
2021/03/24 03:52:55;;;;;;;71.30;29.67;;;2.30;99.90;;;;;;5132363;27;20023;-54
2021/03/24 03:55:39;;;;;;;72.32;33.72;;;2.30;99.90;;;;;;5125587;27;20027;-57
2021/03/24 03:58:28;;;;;;;67.80;32.23;;;2.40;99.90;;;;;;5122584;27;20084;-56
2021/03/24 04:01:39;;;;;;;87.22;35.28;;;2.40;99.90;;;;;;5122008;27;20623;-55
2021/03/24 04:04:14;;;;;;;84.85;34.35;;;2.30;99.90;;;;;;5119832;27;20024;-53
2021/03/24 04:06:56;;;;;;;;;;;2.40;99.90;;;;;;5120693;27;20019;-52
2021/03/24 04:09:22;;;;;;;75.00;32.53;;;2.40;99.90;;;;;;5122985;27;20406;-55
2021/03/24 04:11:51;;;;;;;76.60;33.67;;;2.40;99.90;;;;;;5119253;27;20023;-53
2021/03/24 04:14:29;;;;;;;81.55;33.95;;;2.50;99.90;;;;;;5120355;27;20466;-52
2021/03/24 04:16:55;;;;;;;76.13;33.22;;;2.50;99.90;;;;;;5122531;27;20042;-55
2021/03/24 04:19:28;;;;;;;79.38;35.63;;;2.50;99.90;;;;;;5121956;27;20037;-52
2021/03/24 04:21:59;;;;;;;73.47;34.25;;;2.40;99.90;;;;;;5119526;27;20011;-53
2021/03/24 04:24:32;;;;;;;71.63;32.78;;;2.40;99.90;;;;;;5126989;27;20484;-52
2021/03/24 04:27:01;;;;;;;65.35;30.00;;;2.30;99.90;;;;;;5129309;27;20038;-54
2021/03/24 04:29:38;;;;;;;64.95;30.63;;;2.20;99.90;;;;;;5131432;27;20023;-53
2021/03/24 04:32:04;;;;;;;71.80;32.55;;;2.00;99.90;;;;;;5125444;27;20026;-54
2021/03/24 04:34:31;;;;;;;76.97;32.92;;;2.00;99.90;;;;;;5129778;27;20819;-54
2021/03/24 04:37:21;;;;;;;73.93;32.25;;;1.90;99.90;;;;;;5129434;27;20049;-52
2021/03/24 04:39:57;;;;;;;76.68;32.40;;;1.90;99.90;;;;;;5123938;27;20066;-56
2021/03/24 04:42:28;;;;;;;80.47;35.10;;;1.90;99.90;;;;;;5126982;27;20510;-54
2021/03/24 04:44:56;;;;;;;73.63;33.30;;;1.80;99.90;;;;;;5130772;27;20024;-52
2021/03/24 04:47:30;;;;;;;84.93;35.40;;;1.80;99.90;;;;;;5131087;27;20026;-52
2021/03/24 04:50:04;;;;;;;83.17;37.40;;;1.80;99.90;;;;;;5125702;27;20098;-54
2021/03/24 04:52:33;;;;;;;90.70;38.30;;;1.80;99.90;;;;;;5129037;27;20618;-52
2021/03/24 04:55:05;;;;;;;84.78;38.33;;;1.90;99.90;;;;;;5120993;27;20026;-52
2021/03/24 04:57:31;;;;;;;86.38;38.55;;;1.90;99.90;;;;;;5130040;27;20477;-52
2021/03/24 05:00:06;;;;;;;77.25;35.08;;;1.90;99.90;;;;;;5123889;27;20499;-54
2021/03/24 05:02:33;;;;;;;;;;;2.00;99.90;;;;;;5131471;27;20030;-55
2021/03/24 05:05:11;;;;;;;83.32;34.03;;;2.00;99.90;;;;;;5129561;27;19932;-55
2021/03/24 05:07:36;;;;;;;82.00;35.00;;;2.00;99.90;;;;;;5130716;27;20023;-54
2021/03/24 05:10:12;;;;;;;82.90;36.33;;;2.00;99.90;;;;;;5122190;27;20050;-54
2021/03/24 05:12:46;;;;;;;88.50;36.40;;;2.00;99.90;;;;;;5129896;27;20022;-53
2021/03/24 05:15:21;;;;;;;85.50;37.00;;;2.00;99.90;;;;;;5130950;27;20024;-56
2021/03/24 05:17:47;;;;;;;73.35;32.70;;;2.00;99.90;;;;;;5106989;27;20080;-53
2021/03/24 05:20:22;;;;;;;86.88;35.15;;;2.00;99.90;;;;;;5123631;27;20110;-56
2021/03/24 05:22:48;;;;;;;79.72;34.15;;;2.00;99.90;;;;;;5123793;27;20034;-54
2021/03/24 05:25:38;;;;;;;87.35;34.63;;;2.00;99.90;;;;;;5125553;27;20019;-54
2021/03/24 05:28:26;;;;;;;75.68;33.47;;;2.00;99.90;;;;;;5130019;27;20027;-54
2021/03/24 05:30:58;;;;;;;73.97;33.08;;;2.00;99.90;;;;;;5126609;27;20507;-53
2021/03/24 05:33:27;;;;;;;86.00;34.55;;;2.00;99.90;;;;;;5120988;27;20035;-52
2021/03/24 05:36:11;;;;;;;76.00;34.90;;;1.90;99.90;;;;;;5130498;27;20027;-55
2021/03/24 05:38:40;;;;;;;87.22;35.03;;;1.90;99.90;;;;;;5128455;27;20027;-54
2021/03/24 05:41:48;;;;;;;74.78;31.90;;;1.90;99.90;;;;;;5120188;27;20497;-53
2021/03/24 05:44:38;;;;;;;77.72;30.83;;;1.90;99.90;;;;;;5130041;27;20416;-52
2021/03/24 05:47:12;;;;;;;69.40;30.40;;;1.80;99.90;;;;;;5124039;28;20020;-54
2021/03/24 05:49:58;;;;;;;77.03;33.35;;;1.70;99.90;;;;;;5124317;28;20404;-53
2021/03/24 05:53:05;;;;;;;84.65;35.20;;;1.70;99.90;;;;;;5124014;28;20031;-54
2021/03/24 05:55:38;;;;;;;73.85;32.65;;;1.70;99.90;;;;;;5125690;28;20038;-51
2021/03/24 05:58:12;;;;;;;73.28;31.02;;;1.80;99.90;;;;;;5125634;28;20489;-55
2021/03/24 06:01:02;;;;;;;85.65;37.17;;;1.80;99.90;;;;;;5118681;28;20031;-52
2021/03/24 06:03:46;;;;;;;75.30;33.53;;;1.80;99.90;;;;;;5125683;28;20042;-56
2021/03/24 06:07:08;;;;;;;74.68;32.72;;;1.90;99.90;;;;;;5130338;28;20068;-51
2021/03/24 06:10:04;;;;;;;80.30;32.60;;;1.90;99.90;;;;;;5122403;28;20019;-55
2021/03/24 06:12:54;;;;;;;76.22;32.60;;;1.90;99.90;;;;;;5125043;28;20438;-55
2021/03/24 06:15:38;;;;;;;81.28;32.90;;;2.00;99.90;;;;;;5123544;28;20443;-55
2021/03/24 06:18:06;;;;;;;76.30;32.58;;;2.00;99.90;;;;;;5125916;27;20472;-55
2021/03/24 06:21:08;;;;;;;83.57;34.72;;;2.10;99.90;;;;;;5125087;27;20034;-55
2021/03/24 06:23:50;;;;;;;79.25;32.50;;;2.10;99.90;;;;;;5129667;27;20515;-55
2021/03/24 06:26:24;;;;;;;72.75;31.75;;;2.20;99.90;;;;;;5120296;27;20034;-55
2021/03/24 06:29:19;;;;;;;83.85;35.40;;;2.30;99.90;;;;;;5129849;27;20019;-52
2021/03/24 06:32:03;;;;;;;82.50;35.25;;;2.40;99.90;;;;;;5122839;27;20027;-54
2021/03/24 06:34:47;;;;;;;85.28;36.45;;;2.40;99.90;;;;;;5121870;27;20549;-53
2021/03/24 06:37:28;;;;;;;77.53;33.47;;;2.50;99.90;;;;;;5129430;27;20338;-52
2021/03/24 06:40:10;;;;;;;82.95;35.08;;;2.60;99.90;;;;;;5124384;27;20081;-53
2021/03/24 06:42:52;;;;;;;83.20;35.42;;;2.60;99.90;;;;;;5131136;27;20037;-57
2021/03/24 06:45:46;;;;;;;84.63;34.25;;;2.70;99.90;;;;;;5127608;27;20026;-54
2021/03/24 06:48:31;;;;;;;74.10;32.55;;;2.70;99.90;;;;;;5134461;27;20041;-54
2021/03/24 06:51:20;;;;;;;80.35;35.25;;;2.80;99.90;;;;;;5128589;27;20027;-52
2021/03/24 06:54:11;;;;;;;86.45;37.38;;;3.00;99.90;;;;;;5121518;27;20054;-54
2021/03/24 06:56:55;;;;;;;96.03;40.20;;;3.10;99.90;;;;;;5129621;27;20035;-54
2021/03/24 06:59:31;;;;;;;78.70;35.53;;;3.20;99.90;;;;;;5115834;27;20041;-53
2021/03/24 07:02:05;;;;;;;77.53;34.05;;;3.30;99.90;;;;;;5129072;27;20480;-50
2021/03/24 07:04:40;;;;;;;83.18;36.22;;;3.40;99.90;;;;;;5125977;27;20039;-54
2021/03/24 07:07:33;;;;;;;77.60;35.95;;;3.50;99.90;;;;;;5129369;27;20051;-51
2021/03/24 07:10:04;;;;;;;82.00;35.53;;;3.60;99.90;;;;;;5129150;27;20015;-50
2021/03/24 07:13:07;;;;;;;89.45;35.58;;;3.70;99.90;;;;;;5132856;27;20520;-50
2021/03/24 07:15:51;;;;;;;77.30;32.65;;;3.80;99.90;;;;;;5128283;27;20118;-52
2021/03/24 07:18:45;;;;;;;80.43;35.17;;;3.90;99.90;;;;;;5124930;27;20118;-54
2021/03/24 07:21:48;;;;;;;58.17;26.87;;;4.10;99.90;;;;;;5129141;27;20025;-53
2021/03/24 07:24:51;;;;;;;73.35;33.17;;;4.30;99.90;;;;;;5129234;27;20088;-54
2021/03/24 07:27:33;;;;;;;66.07;30.45;;;4.40;99.90;;;;;;5126731;27;20806;-53
2021/03/24 07:30:24;;;;;;;77.55;33.53;;;4.50;99.90;;;;;;5128892;27;20102;-52
2021/03/24 07:33:06;;;;;;;78.03;33.00;;;4.70;99.90;;;;;;5125888;27;20433;-54
2021/03/24 07:36:08;;;;;;;77.72;32.28;;;4.80;99.90;;;;;;5126151;27;20035;-54
2021/03/24 07:38:59;;;;;;;77.53;33.03;;;5.00;99.90;;;;;;5126424;27;20149;-51
2021/03/24 07:42:01;;;;;;;70.15;31.35;;;5.20;99.90;;;;;;5124265;27;20031;-51
2021/03/24 07:44:49;;;;;;;73.38;31.65;;;5.30;99.90;;;;;;5128588;27;20023;-51
2021/03/24 07:47:39;;;;;;;72.60;31.98;;;5.40;99.90;;;;;;5128317;27;20098;-50
2021/03/24 07:50:29;;;;;;;73.60;33.00;;;5.50;99.90;;;;;;5129067;27;20019;-51
2021/03/24 07:53:09;;;;;;;67.95;31.40;;;5.60;99.90;;;;;;5129073;27;20023;-53
2021/03/24 07:55:45;;;;;;;71.50;32.75;;;5.70;99.90;;;;;;5122984;27;20493;-53
2021/03/24 07:58:45;;;;;;;71.57;31.77;;;5.80;99.90;;;;;;5131126;27;20035;-53
2021/03/24 08:01:23;;;;;;;70.15;31.90;;;5.90;99.90;;;;;;5119100;27;20039;-53
2021/03/24 08:04:14;;;;;;;64.10;31.33;;;6.10;99.90;;;;;;5127190;27;20289;-54
2021/03/24 08:07:07;;;;;;;71.13;31.58;;;6.20;99.90;;;;;;5096825;27;20488;-50
2021/03/24 08:09:36;;;;;;;66.28;29.42;;;6.30;99.90;;;;;;5125667;27;20487;-54
2021/03/24 08:12:25;;;;;;;64.28;30.33;;;6.50;99.90;;;;;;5127518;27;20378;-50
2021/03/24 08:15:09;;;;;;;71.18;31.75;;;6.60;99.90;;;;;;5126142;27;20038;-50
2021/03/24 08:17:57;;;;;;;70.03;31.55;;;6.70;99.90;;;;;;5129157;27;20106;-51
2021/03/24 08:20:27;;;;;;;62.47;29.17;;;6.90;99.90;;;;;;5117608;27;20035;-50
2021/03/24 08:22:59;;;;;;;75.85;33.38;;;7.00;99.90;;;;;;5129651;27;20038;-52
2021/03/24 08:25:40;;;;;;;70.95;29.58;;;7.10;99.90;;;;;;5126873;27;20081;-53
2021/03/24 08:28:35;;;;;;;67.82;30.67;;;7.20;99.90;;;;;;5127265;27;20115;-54
2021/03/24 08:31:03;;;;;;;64.43;29.27;;;7.40;99.90;;;;;;5127146;27;20019;-52
2021/03/24 08:34:02;;;;;;;73.82;31.48;;;7.50;99.90;;;;;;5131162;27;20034;-51
2021/03/24 08:36:46;;;;;;;63.28;29.10;;;7.70;99.90;;;;;;5124590;27;20023;-54
2021/03/24 08:39:32;;;;;;;66.38;29.23;;;7.90;99.90;;;;;;5123187;27;20038;-55
2021/03/24 08:42:30;;;;;;;65.82;29.13;;;8.00;99.90;;;;;;5129687;27;20503;-53
2021/03/24 08:44:59;;;;;;;66.43;28.65;;;8.10;99.90;;;;;;5066967;27;20043;-53
2021/03/24 08:47:41;;;;;;;66.55;30.70;;;8.20;99.90;;;;;;5130040;27;20031;-52
2021/03/24 08:50:14;;;;;;;73.10;30.95;;;8.40;99.90;;;;;;5129734;27;20023;-54
2021/03/24 08:53:01;;;;;;;56.03;28.70;;;8.50;99.90;;;;;;5129849;27;20051;-53
2021/03/24 08:55:46;;;;;;;62.17;29.70;;;8.50;99.90;;;;;;5126666;27;20102;-53
2021/03/24 08:58:17;;;;;;;65.28;30.33;;;8.70;99.90;;;;;;5118486;27;20129;-50
2021/03/24 09:01:02;;;;;;;69.00;28.95;;;8.80;99.90;;;;;;5120096;27;20015;-52
2021/03/24 09:03:57;;;;;;;68.50;28.92;;;9.00;99.90;;;;;;5122588;27;20482;-49
2021/03/24 09:06:47;;;;;;;62.97;30.77;;;9.20;99.90;;;;;;5124746;27;20047;-48
2021/03/24 09:09:38;;;;;;;66.30;28.05;;;9.40;99.90;;;;;;5120588;27;20102;-49
2021/03/24 09:12:23;;;;;;;59.92;27.33;;;9.50;99.90;;;;;;5121672;27;20091;-51
2021/03/24 09:15:28;;;;;;;67.22;30.00;;;9.70;99.90;;;;;;5125857;27;20057;-51
2021/03/24 09:18:17;;;;;;;71.78;30.23;;;9.90;99.90;;;;;;5093244;27;20043;-49
2021/03/24 09:21:03;;;;;;;64.07;29.05;;;10.10;99.90;;;;;;5125941;27;20062;-49
2021/03/24 09:23:50;;;;;;;75.15;30.27;;;10.30;99.90;;;;;;5121081;27;20472;-49
2021/03/24 09:26:49;;;;;;;74.65;30.65;;;10.40;99.90;;;;;;5125126;27;20585;-50
2021/03/24 09:29:29;;;;;;;67.25;29.75;;;10.50;99.90;;;;;;5123015;27;20092;-53
2021/03/24 09:32:33;;;;;;;68.50;31.52;;;10.60;99.90;;;;;;5127532;27;20031;-54
2021/03/24 09:34:58;;;;;;;73.85;31.45;;;10.70;99.90;;;;;;5117471;27;20039;-53
2021/03/24 09:37:35;;;;;;;68.75;31.50;;;11.00;99.90;;;;;;5120417;27;20425;-52
2021/03/24 09:40:26;;;;;;;73.50;31.20;;;11.20;99.90;;;;;;5120182;27;20035;-54
2021/03/24 09:42:54;;;;;;;71.13;31.17;;;11.30;99.90;;;;;;5124659;27;20035;-52
2021/03/24 09:45:25;;;;;;;68.78;30.75;;;11.50;99.90;;;;;;5120412;27;20032;-53
2021/03/24 09:48:01;;;;;;;61.03;28.85;;;11.70;99.90;;;;;;5122188;28;20041;-53
2021/03/24 09:50:50;;;;;;;64.78;31.00;;;11.80;99.90;;;;;;5117996;27;20390;-56
2021/03/24 09:53:24;;;;;;;66.53;31.27;;;12.00;99.90;;;;;;5124792;27;20023;-54
2021/03/24 09:55:56;;;;;;;69.38;31.33;;;12.20;99.90;;;;;;5129158;27;20276;-52
2021/03/24 09:58:24;;;;;;;61.47;29.92;;;12.30;99.90;;;;;;5125848;27;20027;-54
2021/03/24 10:01:11;;;;;;;67.70;30.33;;;12.60;99.90;;;;;;5129216;27;20400;-51
2021/03/24 10:03:53;;;;;;;78.10;32.17;;;12.80;99.90;;;;;;5128637;27;20031;-53
2021/03/24 10:06:23;;;;;;;74.10;33.15;;;12.90;99.90;;;;;;5127672;27;20103;-53
2021/03/24 10:09:01;;;;;;;85.78;33.70;;;13.10;99.90;;;;;;5122773;27;20544;-57
2021/03/24 10:11:30;;;;;;;73.93;29.52;;;13.20;99.90;;;;;;5129010;27;20019;-51
2021/03/24 10:14:17;;;;;;;71.07;33.10;;;13.30;99.90;;;;;;5125119;27;20042;-53
2021/03/24 10:16:47;;;;;;;65.72;31.02;;;13.50;99.90;;;;;;5125568;27;20069;-55
2021/03/24 10:19:34;;;;;;;74.07;34.03;;;13.70;99.90;;;;;;5126819;27;20776;-54
2021/03/24 10:22:08;;;;;;;75.65;32.35;;;14.00;99.90;;;;;;5125536;27;20038;-51
2021/03/24 10:24:42;;;;;;;85.68;35.30;;;14.00;99.90;;;;;;5124940;27;20554;-56
2021/03/24 10:27:12;;;;;;;81.68;34.33;;;14.20;99.90;;;;;;5126258;27;20511;-56
2021/03/24 10:29:50;;;;;;;81.78;33.15;;;14.30;99.90;;;;;;5126840;27;20656;-53
2021/03/24 10:32:24;;;;;;;74.68;31.00;;;14.50;99.90;;;;;;5127073;27;20396;-50
2021/03/24 10:34:59;;;;;;;80.22;32.65;;;14.80;99.90;;;;;;5130740;27;20488;-50
2021/03/24 10:37:30;;;;;;;;;;;15.00;99.90;;;;;;5128803;27;20106;-50
2021/03/24 10:40:06;;;;;;;70.57;32.53;;;14.90;99.90;;;;;;5126848;27;19972;-51
2021/03/24 10:42:44;;;;;;;74.38;32.45;;;14.60;99.90;;;;;;5126972;27;20032;-53
2021/03/24 10:45:44;;;;;;;76.20;35.33;;;14.70;99.90;;;;;;5128626;27;20027;-52
2021/03/24 10:48:22;;;;;;;77.03;31.52;;;14.60;99.90;;;;;;5124779;27;20119;-51
2021/03/24 10:51:12;;;;;;;73.40;33.53;;;14.90;99.90;;;;;;5124089;27;20039;-55
2021/03/24 10:53:38;;;;;;;73.90;33.88;;;15.10;99.90;;;;;;5130110;27;20027;-57
2021/03/24 10:56:27;;;;;;;71.53;33.47;;;15.30;99.90;;;;;;5123971;27;20478;-52
2021/03/24 10:59:14;;;;;;;75.57;34.55;;;15.30;99.90;;;;;;5126765;27;20034;-55
2021/03/24 11:02:11;;;;;;;76.55;34.58;;;15.30;99.90;;;;;;5127159;27;20167;-53
2021/03/24 11:04:49;;;;;;;71.40;33.58;;;15.30;99.90;;;;;;5071606;27;20074;-54
2021/03/24 11:07:18;;;;;;;72.72;34.35;;;15.40;99.90;;;;;;5122485;27;20126;-54
2021/03/24 11:09:58;;;;;;;70.07;33.67;;;15.10;99.90;;;;;;5123457;27;20019;-55
2021/03/24 11:12:35;;;;;;;80.57;36.80;;;15.30;99.90;;;;;;5128077;27;20403;-54
2021/03/24 11:15:22;;;;;;;85.53;37.05;;;15.60;99.90;;;;;;5120821;27;20023;-57
2021/03/24 11:18:00;;;;;;;81.13;34.25;;;15.80;99.90;;;;;;5127196;27;20380;-52
2021/03/24 11:20:47;;;;;;;78.00;33.65;;;15.90;99.90;;;;;;5121807;27;20152;-56
2021/03/24 11:23:32;;;;;;;78.32;33.58;;;16.10;99.90;;;;;;5126231;27;20113;-54
2021/03/24 11:26:04;;;;;;;74.38;35.05;;;16.20;99.90;;;;;;5124839;27;20539;-56
2021/03/24 11:28:34;;;;;;;80.35;34.70;;;16.30;99.90;;;;;;5129553;27;20034;-56
2021/03/24 11:31:13;;;;;;;72.25;34.17;;;16.20;99.90;;;;;;5122601;27;20023;-54
2021/03/24 11:34:10;;;;;;;79.80;32.28;;;16.50;99.90;;;;;;5117806;27;20067;-56
2021/03/24 11:36:40;;;;;;;74.82;33.40;;;16.60;99.90;;;;;;5104634;27;20348;-53
2021/03/24 11:39:11;;;;;;;67.97;31.17;;;16.60;99.90;;;;;;5101874;27;20392;-52
2021/03/24 11:41:39;;;;;;;76.80;32.65;;;16.80;99.90;;;;;;5123402;27;20035;-56
2021/03/24 11:44:22;;;;;;;84.43;34.00;;;17.00;99.90;;;;;;5118165;27;20999;-52
2021/03/24 11:46:48;;;;;;;83.90;32.88;;;16.50;99.90;;;;;;5126904;27;20023;-54
2021/03/24 11:49:29;;;;;;;70.57;31.27;;;16.80;99.90;;;;;;5120184;27;20599;-55
2021/03/24 11:52:35;;;;;;;68.70;29.85;;;17.00;99.90;;;;;;5119137;27;20019;-57
2021/03/24 11:55:48;;;;;;;68.05;30.50;;;17.30;99.90;;;;;;5101475;27;20035;-53
2021/03/24 11:58:46;;;;;;;59.72;27.83;;;17.50;99.90;;;;;;5024806;28;20037;-51
2021/03/24 12:01:24;;;;;;;64.25;27.55;;;17.80;99.90;;;;;;5020032;28;20029;-52
2021/03/24 12:04:02;;;;;;;59.38;26.17;;;17.60;99.90;;;;;;5099303;27;20559;-56
2021/03/24 12:06:42;;;;;;;70.20;31.00;;;17.70;99.90;;;;;;5125044;27;20042;-55
2021/03/24 12:09:18;;;;;;;69.72;31.05;;;18.00;99.90;;;;;;5124896;27;20373;-53
2021/03/24 12:11:43;;;;;;;74.72;32.55;;;18.10;99.90;;;;;;5114887;27;20028;-53
2021/03/24 12:14:13;;;;;;;76.38;31.83;;;17.90;99.90;;;;;;5125174;27;20053;-57
2021/03/24 12:16:42;;;;;;;71.35;30.23;;;17.70;99.90;;;;;;5118649;27;20028;-54
2021/03/24 12:19:25;;;;;;;68.93;29.75;;;18.00;99.90;;;;;;5119814;27;20071;-57
2021/03/24 12:22:00;;;;;;;63.08;27.33;;;18.10;99.90;;;;;;5121785;27;20034;-56
2021/03/24 12:24:38;;;;;;;70.22;28.90;;;18.30;99.90;;;;;;5115748;27;20053;-57
2021/03/24 12:27:11;;;;;;;65.63;27.15;;;18.70;99.90;;;;;;5125807;27;20034;-55
2021/03/24 12:29:38;;;;;;;60.00;27.25;;;18.60;99.90;;;;;;5119701;27;20059;-55
2021/03/24 12:32:14;;;;;;;59.35;26.77;;;18.30;99.90;;;;;;5123503;27;20023;-55
2021/03/24 12:34:44;;;;;;;64.75;28.05;;;18.60;99.90;;;;;;5117846;27;20071;-57
2021/03/24 12:37:47;;;;;;;61.15;27.05;;;18.50;99.90;;;;;;5118746;27;20041;-55
2021/03/24 12:40:20;;;;;;;53.88;25.98;;;18.70;99.90;;;;;;5120174;27;20070;-57
2021/03/24 12:42:47;;;;;;;60.47;26.40;;;18.80;99.90;;;;;;5119208;27;20452;-55
2021/03/24 12:45:31;;;;;;;59.53;25.65;;;18.70;99.90;;;;;;5119209;27;20027;-54
2021/03/24 12:48:09;;;;;;;;;;;18.70;99.90;;;;;;5124083;27;20031;-56
2021/03/24 12:50:57;;;;;;;54.92;24.85;;;18.80;99.90;;;;;;5116800;27;19911;-55
2021/03/24 12:53:49;;;;;;;52.15;24.33;;;18.70;99.90;;;;;;5119420;27;20539;-53
2021/03/24 12:56:40;;;;;;;54.88;24.75;;;18.80;99.90;;;;;;5122364;27;20746;-54
2021/03/24 12:59:23;;;;;;;59.53;24.23;;;19.00;99.90;;;;;;5120172;27;20039;-56
2021/03/24 13:01:55;;;;;;;53.42;23.42;;;19.10;99.90;;;;;;5122047;27;20101;-55
2021/03/24 13:04:34;;;;;;;52.15;23.75;;;19.10;99.90;;;;;;5118782;27;20032;-53
2021/03/24 13:07:21;;;;;;;51.15;21.85;;;19.30;99.90;;;;;;5120195;27;20422;-53
2021/03/24 13:10:05;;;;;;;48.95;22.45;;;19.40;99.90;;;;;;5119463;27;20389;-56
2021/03/24 13:12:30;;;;;;;62.13;23.80;;;19.50;99.90;;;;;;5122459;27;20031;-55
2021/03/24 13:15:14;;;;;;;49.78;20.85;;;19.40;99.50;;;;;;5118408;27;20505;-54
2021/03/24 13:18:13;;;;;;;51.42;21.15;;;19.60;98.80;;;;;;5120043;27;20027;-57
2021/03/24 13:21:04;;;;;;;44.67;21.88;;;19.30;99.90;;;;;;5114114;27;20031;-57
2021/03/24 13:23:54;;;;;;;49.75;22.45;;;19.40;99.90;;;;;;5096365;27;20329;-57
2021/03/24 13:26:33;;;;;;;48.72;21.75;;;19.50;99.70;;;;;;5120767;27;20523;-55
2021/03/24 13:29:08;;;;;;;51.80;23.70;;;19.50;99.90;;;;;;5122701;27;20027;-54